Time;durP1;ratioP1;P1;durP2;ratioP2;P2;SDS_P1;SDS_P2;PMS_P1;PMS_P2;Temp;Humidity;BMP_temperature;BMP_pressure;BME280_temperature;BME280_humidity;BME280_pressure;Samples;Min_cycle;Max_cycle;Signal;HPM_P1;HPM_P2
2022/07/19 00:01:08;;;;;;;4.22;3.10;;;;;;;18.26;52.73;95491.16;5127121;27;20030;-73
2022/07/19 00:03:33;;;;;;;3.78;2.90;;;;;;;18.21;52.89;95496.88;5121698;27;20035;-73
2022/07/19 00:05:59;;;;;;;4.63;2.60;;;;;;;18.20;53.24;95492.63;5122039;27;20424;-73
2022/07/19 00:08:24;;;;;;;5.97;2.90;;;;;;;18.14;53.71;95493.25;5116967;27;20304;-74
2022/07/19 00:10:49;;;;;;;4.43;2.85;;;;;;;18.15;54.00;95487.00;5126198;27;20496;-73
2022/07/19 00:13:15;;;;;;;3.33;2.80;;;;;;;18.14;54.13;95485.38;5111644;28;20063;-73
2022/07/19 00:15:40;;;;;;;3.70;2.75;;;;;;;18.06;54.48;95490.59;5112130;28;20035;-73
2022/07/19 00:18:06;;;;;;;3.92;2.80;;;;;;;18.04;54.83;95488.09;5114099;27;20038;-73
2022/07/19 00:20:31;;;;;;;4.80;2.65;;;;;;;18.02;54.90;95483.97;5121180;27;20519;-73
2022/07/19 00:22:57;;;;;;;3.97;2.53;;;;;;;17.96;55.08;95472.28;5112267;28;20546;-73
2022/07/19 00:25:22;;;;;;;2.72;2.30;;;;;;;18.03;55.42;95493.53;5117965;27;20023;-73
2022/07/19 00:27:47;;;;;;;5.60;2.78;;;;;;;18.04;55.40;95482.84;5130717;27;20023;-73
2022/07/19 00:30:13;;;;;;;5.80;2.75;;;;;;;18.06;55.43;95485.31;5120286;27;20024;-73
2022/07/19 00:32:38;;;;;;;3.25;2.53;;;;;;;18.13;55.81;95481.06;5128484;27;20035;-73
2022/07/19 00:35:04;;;;;;;3.05;2.30;;;;;;;18.15;55.34;95487.00;5114081;27;20031;-73
2022/07/19 00:37:30;;;;;;;5.05;2.70;;;;;;;18.14;55.00;95482.75;5094948;28;20027;-73
2022/07/19 00:39:55;;;;;;;3.20;2.53;;;;;;;18.14;55.06;95482.75;5114528;27;20020;-73
2022/07/19 00:42:21;;;;;;;7.13;3.00;;;;;;;18.05;55.00;95481.03;5107724;27;20027;-73
2022/07/19 00:44:46;;;;;;;4.70;2.50;;;;;;;18.14;54.99;95487.19;5105739;28;20044;-73
2022/07/19 00:47:11;;;;;;;3.40;2.63;;;;;;;18.06;55.48;95480.06;5111604;28;20038;-73
2022/07/19 00:49:37;;;;;;;5.55;2.83;;;;;;;18.05;55.29;95478.41;5099536;27;20061;-73
2022/07/19 00:52:03;;;;;;;4.40;2.58;;;;;;;18.03;55.52;95470.69;5131983;27;20461;-73
2022/07/19 00:54:28;;;;;;;3.90;2.67;;;;;;;17.98;56.12;95478.22;5083385;28;20075;-73
2022/07/19 00:56:54;;;;;;;5.40;2.40;;;;;;;17.97;56.31;95478.34;5127121;27;20023;-73
2022/07/19 00:59:19;;;;;;;6.05;2.60;;;;;;;17.95;56.07;95472.47;5128199;27;20436;-73
2022/07/19 01:01:45;;;;;;;4.88;2.45;;;;;;;17.97;55.98;95473.09;5118602;27;20038;-73
2022/07/19 01:04:10;;;;;;;3.92;2.40;;;;;;;17.88;56.24;95471.41;5093422;28;20040;-73
2022/07/19 01:06:36;;;;;;;4.95;2.40;;;;;;;17.88;56.56;95471.41;5105256;27;20436;-74
2022/07/19 01:09:02;;;;;;;3.25;2.35;;;;;;;17.95;56.14;95473.28;5145700;27;20480;-73
2022/07/19 01:11:27;;;;;;;3.45;2.30;;;;;;;18.00;55.84;95475.44;5112607;28;20032;-73
2022/07/19 01:13:53;;;;;;;2.72;2.30;;;;;;;18.07;55.81;95486.97;5111810;27;20023;-73
2022/07/19 01:16:19;;;;;;;3.08;2.22;;;;;;;18.03;55.73;95475.94;5102506;28;20023;-73
2022/07/19 01:18:44;;;;;;;3.55;2.40;;;;;;;17.90;55.73;95457.16;5091184;28;20509;-73
2022/07/19 01:21:22;;;;;;;6.55;2.60;;;;;;;18.01;55.88;95477.91;5114414;27;20050;-73
2022/07/19 01:23:48;;;;;;;3.80;2.40;;;;;;;18.03;55.98;95472.50;5145464;27;20405;-73
2022/07/19 01:26:13;;;;;;;4.55;2.58;;;;;;;17.92;56.20;95472.78;5145325;27;20027;-74
2022/07/19 01:28:38;;;;;;;3.97;2.50;;;;;;;17.71;57.02;95471.28;5122155;27;20091;-73
2022/07/19 01:31:04;;;;;;;3.42;2.40;;;;;;;17.67;56.87;95466.53;5116377;27;20030;-73
2022/07/19 01:33:30;;;;;;;4.80;2.55;;;;;;;17.49;57.41;95461.28;5145009;27;20032;-73
2022/07/19 01:35:55;;;;;;;3.28;2.40;;;;;;;17.45;57.91;95476.53;5110921;28;20035;-73
2022/07/19 01:38:21;;;;;;;3.80;2.53;;;;;;;17.51;57.72;95480.38;5113107;27;20390;-73
2022/07/19 01:40:46;;;;;;;3.95;2.70;;;;;;;17.30;58.25;95465.78;5131067;27;20023;-73
2022/07/19 01:43:11;;;;;;;2.63;2.30;;;;;;;17.26;58.38;95477.53;5101161;28;20032;-73
2022/07/19 01:45:37;;;;;;;5.53;2.60;;;;;;;17.22;58.64;95464.88;5106394;28;20031;-73
2022/07/19 01:48:03;;;;;;;2.95;2.13;;;;;;;17.20;58.66;95467.66;5110513;28;20100;-73
2022/07/19 01:50:28;;;;;;;4.15;2.42;;;;;;;17.07;58.82;95454.09;5112941;27;20509;-73
2022/07/19 01:52:53;;;;;;;4.22;2.30;;;;;;;17.06;59.17;95463.78;5123859;27;20028;-73
2022/07/19 01:55:19;;;;;;;3.30;2.30;;;;;;;16.97;59.25;95462.06;5113818;27;20031;-73
2022/07/19 01:57:45;;;;;;;6.05;2.80;;;;;;;17.03;59.23;95465.88;5094519;28;20094;-73
2022/07/19 02:00:11;;;;;;;3.97;2.20;;;;;;;17.02;59.35;95469.47;5102303;28;20028;-73
2022/07/19 02:02:36;;;;;;;4.05;2.38;;;;;;;16.90;59.70;95466.25;5121226;27;20038;-73
2022/07/19 02:05:03;;;;;;;3.75;2.40;;;;;;;16.82;60.09;95471.41;5127801;27;20039;-73
2022/07/19 02:07:28;;;;;;;3.42;2.33;;;;;;;16.75;60.11;95464.13;5112100;27;20088;-73
2022/07/19 02:09:56;;;;;;;2.63;2.15;;;;;;;16.88;59.93;95462.94;5131889;27;20031;-73
2022/07/19 02:12:21;;;;;;;2.40;2.08;;;;;;;16.98;59.70;95474.19;5120753;27;20027;-73
2022/07/19 02:14:47;;;;;;;4.35;2.35;;;;;;;16.96;59.75;95465.63;5131964;27;20031;-73
2022/07/19 02:17:12;;;;;;;3.92;2.17;;;;;;;17.01;59.72;95473.06;5113599;27;20027;-73
2022/07/19 02:19:38;;;;;;;3.97;2.03;;;;;;;17.01;59.77;95479.13;5119086;27;20039;-73
2022/07/19 02:22:03;;;;;;;2.75;2.25;;;;;;;17.02;59.71;95474.72;5110781;27;20038;-73
2022/07/19 02:24:28;;;;;;;4.15;2.10;;;;;;;17.13;59.36;95477.09;5129051;27;20042;-73
2022/07/19 02:26:54;;;;;;;4.57;2.08;;;;;;;17.20;59.15;95472.91;5118632;27;20028;-73
2022/07/19 02:29:19;;;;;;;3.90;2.22;;;;;;;17.14;59.24;95468.28;5110157;28;20027;-73
2022/07/19 02:31:45;;;;;;;4.53;2.20;;;;;;;17.16;59.44;95482.03;5093231;28;20031;-73
2022/07/19 02:34:10;;;;;;;4.80;2.25;;;;;;;17.21;59.18;95482.41;5111349;28;20031;-73
2022/07/19 02:36:36;;;;;;;3.72;2.30;;;;;;;17.19;59.41;95473.91;5143995;27;20411;-73
2022/07/19 02:39:01;;;;;;;4.32;2.33;;;;;;;17.19;59.17;95471.28;5093110;28;20035;-73
2022/07/19 02:59:46;;;;;;;5.53;2.33;;;;;;;17.44;58.68;95482.78;5149701;27;20388;-72
2022/07/19 03:02:12;;;;;;;4.40;2.40;;;;;;;17.40;58.79;95482.25;5149472;27;20046;-72
2022/07/19 03:04:37;;;;;;;3.40;2.22;;;;;;;17.36;58.74;95483.53;5148363;27;20035;-72
2022/07/19 03:07:03;;;;;;;3.33;2.25;;;;;;;17.28;59.40;95486.09;5147429;27;20026;-72
2022/07/19 03:09:28;;;;;;;3.72;2.10;;;;;;;17.08;59.52;95466.25;5149500;27;20450;-72
2022/07/19 03:11:54;;;;;;;3.35;2.60;;;;;;;17.17;59.68;95486.34;5149434;27;20023;-72
2022/07/19 03:14:19;;;;;;;3.05;2.00;;;;;;;17.17;59.66;95496.84;5149376;27;20027;-71
2022/07/19 03:16:44;;;;;;;4.72;2.22;;;;;;;17.05;60.16;95491.00;5096598;28;20416;-71
2022/07/19 03:19:10;;;;;;;4.10;2.22;;;;;;;16.97;60.03;95481.25;5127255;28;20039;-72
2022/07/19 03:21:35;;;;;;;2.63;2.10;;;;;;;16.97;60.02;95489.13;5131726;27;20028;-72
2022/07/19 03:24:01;;;;;;;3.97;2.38;;;;;;;16.98;60.00;95496.00;5128977;27;20031;-72
2022/07/19 03:26:26;;;;;;;3.90;2.33;;;;;;;16.89;60.07;95485.59;5128575;27;20027;-72
2022/07/19 03:28:52;;;;;;;3.75;2.47;;;;;;;16.93;60.33;95498.25;5110444;28;20031;-72
2022/07/19 03:31:18;;;;;;;2.53;2.03;;;;;;;16.84;60.04;95483.41;5128410;27;20080;-72
2022/07/19 03:33:43;;;;;;;3.58;2.30;;;;;;;16.86;60.19;95494.59;5110012;28;20039;-72
2022/07/19 03:36:09;;;;;;;3.10;2.13;;;;;;;16.73;60.65;95486.22;5134722;27;20043;-72
2022/07/19 03:38:34;;;;;;;2.90;2.25;;;;;;;16.74;60.79;95499.19;5147879;27;20039;-72
2022/07/19 03:41:00;;;;;;;2.83;2.40;;;;;;;16.59;61.01;95491.97;5146711;27;20027;-72
2022/07/19 03:43:25;;;;;;;3.58;2.30;;;;;;;16.70;61.02;95503.06;5109263;27;20053;-72
2022/07/19 03:45:51;;;;;;;3.70;2.35;;;;;;;16.51;61.57;95498.75;5145362;27;20035;-72
2022/07/19 03:48:17;;;;;;;4.35;2.38;;;;;;;16.43;61.97;95498.69;5145755;27;20039;-72
2022/07/19 03:50:43;;;;;;;4.75;2.33;;;;;;;16.49;61.50;95494.63;5127829;27;20113;-72
2022/07/19 03:53:08;;;;;;;2.53;2.15;;;;;;;16.50;61.72;95491.06;5128969;27;20042;-72
2022/07/19 03:55:34;;;;;;;2.92;2.20;;;;;;;16.51;61.92;95504.00;5127377;27;20039;-72
2022/07/19 03:57:59;;;;;;;4.43;2.20;;;;;;;16.51;61.95;95500.56;5143859;27;20043;-72
2022/07/19 04:00:25;;;;;;;5.32;2.17;;;;;;;16.50;62.05;95494.50;5129466;27;20492;-72
2022/07/19 04:02:50;;;;;;;2.50;2.10;;;;;;;16.74;61.61;95514.09;5132609;27;20106;-72
2022/07/19 04:05:16;;;;;;;2.85;2.25;;;;;;;16.85;61.44;95516.53;5132914;27;20023;-72
2022/07/19 04:07:41;;;;;;;4.50;2.25;;;;;;;17.00;61.79;95516.03;5114960;27;20038;-72
2022/07/19 04:10:07;;;;;;;4.95;2.22;;;;;;;17.19;60.89;95506.22;5114485;27;20035;-72
2022/07/19 04:12:33;;;;;;;3.35;1.98;;;;;;;17.84;59.45;95513.78;5132833;27;20059;-73
2022/07/19 04:15:00;;;;;;;4.55;2.63;;;;;;;19.01;56.42;95512.31;5115340;27;20019;-72
2022/07/19 04:17:26;;;;;;;7.90;2.30;;;;;;;19.96;52.70;95507.38;5132129;27;20393;-73
2022/07/19 04:19:51;;;;;;;5.32;2.50;;;;;;;20.71;50.07;95501.69;5114248;27;20495;-74
2022/07/19 04:22:17;;;;;;;5.65;2.40;;;;;;;21.58;47.78;95508.56;5131255;27;20054;-73
2022/07/19 04:24:42;;;;;;;4.40;2.22;;;;;;;22.34;45.47;95503.22;5133417;27;20028;-74
2022/07/19 04:27:09;;;;;;;4.05;2.00;;;;;;;22.66;45.69;95505.47;5129405;27;20420;-72
2022/07/19 04:29:34;;;;;;;3.70;2.10;;;;;;;23.10;44.71;95504.59;5123835;27;20038;-73
2022/07/19 04:32:00;;;;;;;4.00;1.70;;;;;;;24.01;42.00;95506.59;5118799;27;20035;-72
2022/07/19 04:34:25;;;;;;;2.53;1.65;;;;;;;24.71;39.91;95496.81;5096226;27;20036;-72
2022/07/19 04:36:51;;;;;;;4.80;2.10;;;;;;;25.27;38.52;95501.09;5107011;27;20054;-73
2022/07/19 04:39:16;;;;;;;4.50;1.95;;;;;;;25.96;37.23;95490.09;5131666;27;20035;-72
2022/07/19 04:41:41;;;;;;;3.40;1.85;;;;;;;26.68;35.72;95487.50;5129589;27;20556;-73
2022/07/19 04:44:07;;;;;;;4.13;2.03;;;;;;;27.24;34.70;95491.34;5130197;27;20031;-73
2022/07/19 04:46:32;;;;;;;3.05;1.70;;;;;;;27.71;33.85;95487.31;5131566;27;20027;-73
2022/07/19 04:48:58;;;;;;;3.80;1.95;;;;;;;28.06;33.32;95489.53;5129675;27;20119;-73
2022/07/19 04:51:23;;;;;;;3.47;1.70;;;;;;;28.78;32.29;95489.81;5107220;27;20035;-72
2022/07/19 04:53:49;;;;;;;5.60;1.92;;;;;;;29.09;31.45;95493.34;5123491;27;20096;-73
2022/07/19 04:56:14;;;;;;;9.23;2.28;;;;;;;28.91;31.97;95494.16;5095025;27;20370;-72
2022/07/19 04:58:40;;;;;;;6.40;2.10;;;;;;;27.00;35.31;95512.38;5129696;27;20063;-73
2022/07/19 05:01:05;;;;;;;5.50;2.10;;;;;;;25.57;38.00;95507.66;5104224;27;20031;-73
2022/07/19 05:03:30;;;;;;;6.53;2.80;;;;;;;24.89;39.26;95513.03;5111435;27;20049;-73
2022/07/19 05:05:56;;;;;;;6.03;2.53;;;;;;;24.69;39.78;95514.78;5124391;27;20027;-73
2022/07/19 05:08:21;;;;;;;7.25;2.55;;;;;;;24.33;40.82;95510.50;5128409;27;20042;-72
2022/07/19 05:10:47;;;;;;;5.80;2.90;;;;;;;24.22;41.48;95503.88;5127610;27;20039;-73
2022/07/19 05:13:12;;;;;;;9.23;2.85;;;;;;;24.13;41.41;95501.59;5126589;27;20061;-73
2022/07/19 05:15:38;;;;;;;7.20;2.33;;;;;;;24.17;40.90;95502.84;5119086;27;20547;-72
2022/07/19 05:18:03;;;;;;;7.20;2.00;;;;;;;24.21;40.88;95502.25;5102458;28;20390;-72
2022/07/19 05:20:28;;;;;;;4.93;2.00;;;;;;;24.18;40.68;95499.16;5116883;27;20436;-72
2022/07/19 05:22:54;;;;;;;2.85;1.90;;;;;;;24.19;41.40;95498.97;5100950;28;20024;-72
2022/07/19 05:25:20;;;;;;;6.38;2.25;;;;;;;24.21;41.36;95496.09;5114300;27;20420;-72
2022/07/19 05:27:45;;;;;;;9.38;2.40;;;;;;;24.23;41.04;95502.06;5116360;27;20068;-73
2022/07/19 05:30:11;;;;;;;7.43;4.78;;;;;;;24.13;41.75;95496.28;5116011;27;20087;-75
2022/07/19 05:32:37;;;;;;;5.72;3.00;;;;;;;24.04;41.92;95500.91;5107170;27;20023;-75
2022/07/19 05:35:03;;;;;;;4.55;2.13;;;;;;;23.77;41.16;95500.72;5110345;27;20023;-75
2022/07/19 05:37:28;;;;;;;3.15;1.95;;;;;;;23.85;41.28;95502.44;5117054;27;20035;-74
2022/07/19 05:39:54;;;;;;;3.38;1.95;;;;;;;23.71;42.52;95504.16;5113832;27;20072;-74
2022/07/19 05:42:19;;;;;;;5.35;2.10;;;;;;;23.87;41.92;95503.03;5118779;27;20031;-73
2022/07/19 05:44:45;;;;;;;9.05;2.08;;;;;;;23.90;41.78;95509.78;5130804;27;20027;-73
2022/07/19 05:47:10;;;;;;;3.50;1.70;;;;;;;23.84;42.21;95503.41;5128324;27;20035;-73
2022/07/19 05:49:35;;;;;;;10.68;2.20;;;;;;;23.85;42.54;95507.72;5118582;27;20500;-73
2022/07/19 05:52:01;;;;;;;5.43;2.80;;;;;;;23.59;42.92;95503.81;5118412;27;20023;-77
2022/07/19 05:54:26;;;;;;;6.82;2.50;;;;;;;23.69;43.38;95500.03;5114120;27;20022;-74
2022/07/19 05:56:52;;;;;;;9.00;2.40;;;;;;;23.76;43.00;95499.06;5130692;27;20120;-74
2022/07/19 05:59:20;;;;;;;5.57;2.53;;;;;;;23.61;43.08;95488.53;5131862;27;20078;-74
2022/07/19 06:01:47;;;;;;;8.05;2.45;;;;;;;23.69;42.99;95492.88;5131670;27;20029;-75
2022/07/19 06:04:12;;;;;;;5.95;2.47;;;;;;;23.67;43.05;95491.44;5112268;27;20035;-74
2022/07/19 06:06:37;;;;;;;3.13;2.03;;;;;;;23.77;43.28;95479.50;5110952;27;20034;-75
2022/07/19 06:09:04;;;;;;;7.50;2.55;;;;;;;23.81;43.12;95491.34;5128144;27;20106;-75
2022/07/19 06:11:30;;;;;;;5.78;2.42;;;;;;;23.87;42.97;95495.06;5116239;27;20498;-75
2022/07/19 06:13:55;;;;;;;7.18;2.67;;;;;;;23.88;42.75;95494.09;5128268;27;20101;-75
2022/07/19 06:16:21;;;;;;;13.38;3.13;;;;;;;23.91;42.71;95495.53;5129024;27;20026;-75
2022/07/19 06:18:47;;;;;;;5.28;2.70;;;;;;;23.88;42.76;95472.84;5136011;27;20062;-75
2022/07/19 06:21:13;;;;;;;7.38;2.42;;;;;;;23.89;42.58;95487.75;5120925;27;20035;-75
2022/07/19 06:23:40;;;;;;;3.83;2.28;;;;;;;23.83;42.80;95477.91;5128191;27;20127;-74
2022/07/19 06:26:05;;;;;;;5.82;1.95;;;;;;;23.94;42.27;95487.19;5111259;27;20275;-75
2022/07/19 06:28:31;;;;;;;5.15;2.40;;;;;;;23.92;42.62;95481.25;5120420;27;20032;-75
2022/07/19 06:30:56;;;;;;;3.55;2.50;;;;;;;23.96;42.83;95485.13;5117187;27;20106;-75
2022/07/19 06:33:22;;;;;;;6.57;2.40;;;;;;;23.95;42.94;95489.63;5130428;27;20027;-74
2022/07/19 06:35:47;;;;;;;5.68;2.10;;;;;;;24.11;42.67;95482.38;5104174;27;20023;-75
2022/07/19 06:38:13;;;;;;;5.28;2.42;;;;;;;24.15;42.69;95483.63;5103770;28;20036;-74
2022/07/19 06:40:38;;;;;;;5.45;2.05;;;;;;;24.27;42.62;95484.75;5092721;28;20027;-75
2022/07/19 06:43:04;;;;;;;5.25;2.42;;;;;;;24.26;41.92;95478.59;5092284;27;20046;-79
2022/07/19 06:45:29;;;;;;;9.57;2.30;;;;;;;24.05;43.01;95482.16;5130872;27;20080;-75
2022/07/19 06:47:55;;;;;;;5.55;2.22;;;;;;;24.16;42.86;95478.13;5116440;27;20038;-75
2022/07/19 06:50:20;;;;;;;6.18;2.50;;;;;;;24.24;42.54;95483.28;5114609;27;20462;-73
2022/07/19 06:52:46;;;;;;;4.32;2.40;;;;;;;24.23;42.34;95483.47;5119183;27;20119;-74
2022/07/19 06:55:11;;;;;;;5.25;2.78;;;;;;;24.30;42.25;95479.03;5112774;27;20059;-74
2022/07/19 06:57:37;;;;;;;2.90;2.20;;;;;;;24.43;42.31;95489.75;5114424;28;20028;-74
2022/07/19 07:00:04;;;;;;;6.22;2.58;;;;;;;24.59;41.45;95485.13;5119959;28;20452;-74
2022/07/19 07:02:29;;;;;;;4.53;2.60;;;;;;;24.75;41.75;95474.16;5110811;28;20043;-74
2022/07/19 07:04:55;;;;;;;3.45;2.47;;;;;;;24.71;41.49;95486.19;5109003;28;20019;-74
2022/07/19 07:07:20;;;;;;;4.30;2.33;;;;;;;24.86;40.54;95486.84;5123031;28;20038;-74
2022/07/19 07:09:46;;;;;;;3.95;2.33;;;;;;;24.88;41.47;95476.03;5110306;27;20037;-74
2022/07/19 07:12:11;;;;;;;6.70;2.20;;;;;;;25.07;40.11;95479.75;5125334;28;20504;-74
2022/07/19 07:14:37;;;;;;;4.63;2.60;;;;;;;25.19;38.19;95479.00;5130023;28;20038;-74
2022/07/19 07:17:02;;;;;;;4.25;2.15;;;;;;;25.19;38.54;95483.50;5111651;28;20019;-74
2022/07/19 07:19:27;;;;;;;9.70;2.20;;;;;;;25.05;39.39;95474.66;5130723;27;20038;-74
2022/07/19 07:21:53;;;;;;;4.13;2.40;;;;;;;25.22;38.91;95482.28;5117010;28;20428;-74
2022/07/19 07:24:18;;;;;;;7.22;2.50;;;;;;;24.92;38.69;95475.41;5129086;27;20031;-74
2022/07/19 07:26:44;;;;;;;6.00;2.58;;;;;;;25.15;38.59;95476.94;5112764;28;20035;-74
2022/07/19 07:29:09;;;;;;;5.53;2.42;;;;;;;25.24;38.81;95475.75;5129991;27;20027;-74
2022/07/19 07:31:36;;;;;;;2.88;2.00;;;;;;;25.28;37.39;95471.66;5118639;28;20488;-74
2022/07/19 07:34:02;;;;;;;7.90;2.42;;;;;;;25.18;38.13;95469.41;5130077;27;20441;-74
2022/07/19 07:36:28;;;;;;;4.93;2.40;;;;;;;25.37;38.53;95474.94;5153232;27;20146;-74
2022/07/19 07:38:53;;;;;;;7.13;2.45;;;;;;;25.57;37.00;95474.94;5145340;27;20049;-74
2022/07/19 07:41:19;;;;;;;5.15;2.20;;;;;;;25.57;36.33;95472.28;5123253;27;20038;-74
2022/07/19 07:43:44;;;;;;;4.45;2.20;;;;;;;25.77;36.68;95473.13;5132670;27;20311;-74
2022/07/19 07:46:10;;;;;;;3.67;1.98;;;;;;;25.84;35.58;95460.63;5099079;27;20507;-74
2022/07/19 07:48:35;;;;;;;3.97;2.25;;;;;;;26.03;35.41;95464.31;5130158;27;20031;-73
2022/07/19 07:51:01;;;;;;;4.97;2.30;;;;;;;26.19;35.59;95471.03;5107004;27;20467;-75
2022/07/19 07:53:26;;;;;;;5.00;2.33;;;;;;;26.20;34.76;95463.84;5112728;27;20023;-74
2022/07/19 07:55:52;;;;;;;5.32;2.10;;;;;;;25.96;33.62;95460.81;5131641;27;20110;-74
2022/07/19 07:58:17;;;;;;;2.85;2.20;;;;;;;25.81;34.06;95461.03;5136208;27;20057;-75
2022/07/19 08:00:43;;;;;;;3.92;2.20;;;;;;;25.88;34.22;95455.72;5150465;27;20072;-74
2022/07/19 08:03:08;;;;;;;4.82;2.05;;;;;;;25.71;34.04;95447.31;5128601;27;20098;-75
2022/07/19 08:05:34;;;;;;;3.65;2.08;;;;;;;25.77;33.57;95457.16;5097125;27;20031;-74
2022/07/19 08:08:00;;;;;;;5.05;2.15;;;;;;;25.74;34.28;95428.31;5123376;27;20034;-74
2022/07/19 08:10:27;;;;;;;5.95;2.10;;;;;;;25.94;33.93;95448.78;5113712;27;20024;-76
2022/07/19 08:12:53;;;;;;;3.65;2.20;;;;;;;26.00;33.50;95453.25;5127325;27;20034;-74
2022/07/19 08:15:19;;;;;;;4.80;2.22;;;;;;;26.04;33.93;95454.47;5132432;27;20027;-74
2022/07/19 08:17:44;;;;;;;3.15;2.30;;;;;;;25.99;32.89;95457.78;5124082;27;20110;-75
2022/07/19 08:20:10;;;;;;;4.50;2.10;;;;;;;25.69;31.35;95435.25;5130761;27;20105;-75
2022/07/19 08:22:35;;;;;;;7.15;2.20;;;;;;;25.85;30.99;95449.00;5133843;27;20113;-74
2022/07/19 08:25:01;;;;;;;3.13;2.17;;;;;;;25.73;32.42;95445.25;5109985;28;20115;-76
2022/07/19 08:27:27;;;;;;;5.53;2.20;;;;;;;25.76;32.39;95434.22;5128564;27;20396;-76
2022/07/19 08:29:52;;;;;;;4.28;2.00;;;;;;;25.88;31.51;95438.94;5132452;27;20027;-74
2022/07/19 08:32:17;;;;;;;4.85;2.13;;;;;;;25.72;30.92;95450.81;5121396;27;20036;-73
2022/07/19 08:34:43;;;;;;;3.22;1.80;;;;;;;25.70;31.72;95445.69;5121861;27;20084;-74
2022/07/19 08:37:08;;;;;;;4.82;2.25;;;;;;;25.65;31.00;95448.13;5130145;27;20522;-74
2022/07/19 08:39:34;;;;;;;3.38;1.90;;;;;;;25.70;31.53;95439.56;5111471;27;20035;-74
2022/07/19 08:41:59;;;;;;;5.65;2.10;;;;;;;25.84;30.80;95444.66;5111250;27;20019;-73
2022/07/19 08:44:25;;;;;;;6.22;1.90;;;;;;;25.85;31.61;95435.69;5126419;27;20058;-74
2022/07/19 08:46:50;;;;;;;4.00;2.05;;;;;;;25.99;31.71;95436.47;5122901;27;20058;-73
2022/07/19 08:49:16;;;;;;;4.60;1.95;;;;;;;26.22;30.79;95446.66;5121664;27;20451;-75
2022/07/19 08:51:42;;;;;;;3.17;1.80;;;;;;;26.30;31.23;95438.44;5116525;27;20028;-74
2022/07/19 08:54:07;;;;;;;8.30;2.05;;;;;;;26.24;30.82;95446.44;5106201;27;20038;-74
2022/07/19 08:59:17;;;;;;;2.60;2.15;;;;;;;26.52;30.45;95433.69;5127703;27;20065;-73
2022/07/19 09:01:42;;;;;;;4.13;2.20;;;;;;;26.56;29.89;95431.41;5121649;27;20015;-74
2022/07/19 09:04:21;;;;;;;3.60;2.08;;;;;;;26.70;30.45;95442.81;5087257;28;20093;-74
2022/07/19 09:06:47;;;;;;;2.83;1.90;;;;;;;26.75;29.89;95421.69;5120787;27;20027;-74
2022/07/19 09:09:14;;;;;;;3.65;1.90;;;;;;;26.85;31.09;95435.34;5131487;27;20488;-73
2022/07/19 09:11:53;;;;;;;2.78;1.77;;;;;;;26.91;29.90;95439.00;5111071;27;20081;-73
2022/07/19 09:14:29;;;;;;;5.03;2.22;;;;;;;26.92;28.98;95435.31;5120783;27;20038;-73
2022/07/19 09:16:56;;;;;;;4.40;1.83;;;;;;;26.85;29.60;95439.88;5112518;28;20102;-73
2022/07/19 09:19:22;;;;;;;5.18;2.00;;;;;;;26.83;29.71;95441.91;5112914;27;20035;-73
2022/07/19 09:22:02;;;;;;;5.05;1.80;;;;;;;26.83;30.23;95432.09;5094800;27;20027;-73
2022/07/19 09:24:29;;;;;;;5.10;1.92;;;;;;;26.84;30.18;95425.72;5109184;27;20046;-73
2022/07/19 09:27:02;;;;;;;3.45;2.10;;;;;;;26.77;30.46;95432.13;5142197;27;20026;-73
2022/07/19 09:29:29;;;;;;;4.30;2.10;;;;;;;26.04;31.46;95422.53;5130363;27;20144;-73
2022/07/19 09:32:05;;;;;;;7.88;2.10;;;;;;;26.14;32.01;95425.59;5107037;27;20098;-73
2022/07/19 09:34:36;;;;;;;2.63;1.80;;;;;;;26.24;32.27;95428.63;5103716;27;20393;-73
2022/07/19 09:37:16;;;;;;;5.05;2.10;;;;;;;26.30;30.47;95416.31;5111031;27;20034;-73
2022/07/19 09:39:44;;;;;;;2.97;2.15;;;;;;;26.34;30.04;95422.03;5128868;27;20433;-73
2022/07/19 09:42:11;;;;;;;3.25;2.00;;;;;;;26.30;30.56;95421.66;5091218;27;20499;-73
2022/07/19 09:44:37;;;;;;;3.67;1.98;;;;;;;26.29;30.00;95420.81;5118705;27;20412;-73
2022/07/19 09:47:02;;;;;;;4.20;1.88;;;;;;;26.22;29.81;95412.03;5126003;27;20023;-73
2022/07/19 09:49:28;;;;;;;2.83;2.00;;;;;;;26.39;30.95;95419.56;5108379;27;20030;-73
2022/07/19 09:51:54;;;;;;;4.05;2.20;;;;;;;26.59;29.95;95414.19;5123340;27;20594;-73
2022/07/19 09:54:23;;;;;;;3.88;2.00;;;;;;;26.71;30.05;95412.47;5095989;27;20031;-73
2022/07/19 09:56:50;;;;;;;3.65;2.03;;;;;;;26.70;29.62;95422.31;5128711;27;20492;-73
2022/07/19 09:59:15;;;;;;;3.50;1.90;;;;;;;26.71;29.80;95415.94;5126451;27;20076;-73
2022/07/19 10:01:41;;;;;;;11.60;2.03;;;;;;;26.70;28.89;95411.66;5093546;27;20024;-73
2022/07/19 10:04:10;;;;;;;3.53;2.25;;;;;;;26.64;29.96;95417.03;5109160;28;20043;-73
2022/07/19 10:06:36;;;;;;;3.97;1.90;;;;;;;26.60;30.30;95419.28;5126328;27;20027;-74
2022/07/19 10:09:03;;;;;;;6.45;2.08;;;;;;;26.70;30.81;95416.97;5131110;27;20027;-73
2022/07/19 10:11:30;;;;;;;6.60;2.08;;;;;;;26.92;29.22;95409.47;5107482;28;20046;-74
2022/07/19 10:13:56;;;;;;;2.85;1.75;;;;;;;26.84;29.31;95391.09;5098962;27;20031;-73
2022/07/19 10:16:24;;;;;;;3.42;1.90;;;;;;;26.93;29.30;95399.63;5128587;27;20506;-74
2022/07/19 10:19:15;;;;;;;3.35;2.80;;;;;;;27.04;30.21;95390.94;5094391;27;20031;-73
2022/07/19 10:21:41;;;;;;;5.38;2.70;;;;;;;27.20;29.20;95383.50;5121699;27;20129;-73
2022/07/19 10:24:06;;;;;;;3.70;1.90;;;;;;;27.29;27.98;95387.53;5095157;28;20092;-75
2022/07/19 10:26:36;;;;;;;2.47;2.13;;;;;;;27.32;28.90;95397.75;5081470;27;20503;-76
2022/07/19 10:29:15;;;;;;;3.22;2.55;;;;;;;27.45;28.48;95388.84;5101291;28;20478;-74
2022/07/19 10:31:40;;;;;;;4.35;2.50;;;;;;;27.51;27.67;95385.28;5108184;28;20088;-76
2022/07/19 10:34:07;;;;;;;4.95;3.35;;;;;;;27.56;27.04;95378.25;5092642;28;20032;-74
2022/07/19 10:36:37;;;;;;;3.90;2.22;;;;;;;27.68;26.02;95380.22;5109406;28;20020;-73
2022/07/19 10:39:35;;;;;;;3.55;2.25;;;;;;;27.63;27.12;95379.00;5112231;27;20031;-74
2022/07/19 10:42:10;;;;;;;5.85;2.30;;;;;;;27.56;27.65;95378.25;5101962;28;20032;-75
2022/07/19 10:44:54;;;;;;;5.70;2.30;;;;;;;27.44;27.25;95385.34;5106486;27;20110;-74
2022/07/19 10:47:26;;;;;;;6.90;6.03;;;;;;;27.36;28.41;95377.63;5113467;28;20031;-74
2022/07/19 10:49:52;;;;;;;3.75;2.58;;;;;;;27.46;28.38;95377.94;5128903;27;20038;-75
2022/07/19 10:52:26;;;;;;;6.80;5.68;;;;;;;27.37;27.67;95373.91;5093425;28;20039;-73
2022/07/19 10:55:14;;;;;;;5.00;2.65;;;;;;;27.24;28.66;95368.69;5120613;27;20027;-75
2022/07/19 10:57:40;;;;;;;3.00;2.30;;;;;;;27.09;28.44;95358.31;5116220;27;20035;-73
2022/07/19 11:00:22;;;;;;;3.15;2.10;;;;;;;27.00;29.24;95365.78;5126313;27;20035;-73
2022/07/19 11:02:49;;;;;;;4.30;2.10;;;;;;;26.69;29.89;95375.41;5122049;28;20445;-74
2022/07/19 11:05:20;;;;;;;3.88;2.67;;;;;;;26.76;28.99;95375.34;5107962;28;20482;-74
2022/07/19 11:07:53;;;;;;;4.85;3.88;;;;;;;26.84;29.33;95366.28;5126487;27;20047;-74
2022/07/19 11:10:22;;;;;;;4.80;2.95;;;;;;;26.88;29.53;95364.81;5123554;27;20026;-74
2022/07/19 11:12:48;;;;;;;5.30;2.63;;;;;;;26.95;28.07;95353.09;5123518;27;20041;-74
2022/07/19 11:15:13;;;;;;;5.85;3.60;;;;;;;26.98;29.90;95359.03;5132683;27;20027;-74
2022/07/19 11:17:39;;;;;;;5.00;2.60;;;;;;;27.06;28.78;95361.41;5108218;27;20104;-74
2022/07/19 11:20:10;;;;;;;4.30;2.70;;;;;;;27.15;29.02;95358.25;5125497;27;20027;-74
2022/07/19 11:22:38;;;;;;;5.80;2.92;;;;;;;27.22;29.05;95355.59;5127282;27;20118;-74
2022/07/19 11:25:04;;;;;;;3.58;2.60;;;;;;;27.34;28.97;95351.16;5129192;27;20058;-74
2022/07/19 11:27:30;;;;;;;2.50;2.10;;;;;;;27.40;29.40;95341.47;5126438;27;20412;-73
2022/07/19 11:29:56;;;;;;;3.45;2.60;;;;;;;27.55;29.58;95343.78;5128514;27;20030;-74
2022/07/19 11:32:22;;;;;;;8.20;4.35;;;;;;;27.57;29.00;95347.88;5107797;27;20036;-73
2022/07/19 11:35:04;;;;;;;8.00;3.75;;;;;;;27.58;27.95;95340.69;5112110;27;20427;-74
2022/07/19 11:37:31;;;;;;;5.50;2.22;;;;;;;27.59;27.58;95347.66;5114993;27;20035;-74
2022/07/19 11:39:59;;;;;;;2.55;2.05;;;;;;;27.26;27.50;95342.63;5130740;27;20019;-74
2022/07/19 11:42:38;;;;;;;4.82;2.20;;;;;;;27.36;28.36;95343.78;5127290;27;20038;-73
2022/07/19 11:45:21;;;;;;;4.18;2.30;;;;;;;27.47;27.90;95342.25;5133188;27;20552;-73
2022/07/19 11:47:47;;;;;;;5.65;2.22;;;;;;;27.50;27.85;95344.47;5132722;27;20530;-72
2022/07/19 11:50:15;;;;;;;3.05;1.90;;;;;;;27.44;28.45;95341.84;5132122;27;20042;-74
2022/07/19 11:52:48;;;;;;;4.88;2.30;;;;;;;27.44;28.44;95334.66;5091798;27;20051;-72